Grande Portogallo — IBZW — position and weather

sailwx.info

Track history (hours):
 
Tides and Currents Weather Stations Pressure Air Temp Water Temp Dewpoint Dewpoint Depression Visibility Wind Speed Wind Dir Waves Ship Positions

Grande Portogallo

Last reported at 2016-Jul-29 10:32 UTC. Time now 2016-Jul-30 14:57 UTC.
Position N 40°44' E 029°27'.

Length 176 m; draft 7.7 m.

Type: Cargo ship. MMSI: 247065500.

Date/timePositionNaut miles runAvg speedWind from/ knotsBaromVisibWave heightAir tempDewpointWater temp
2016-Jul-29 10:32N 40°44' E 029°27'1111.2
2016-Jul-29 09:33N 40°43' E 029°12'24312.5
2016-Jul-28 14:11N 37°36' E 025°52'  
2016-Jul-26 01:22N 35°11' E 035°15'1214.6
2016-Jul-26 00:33N 34°59' E 035°20'1914.4
2016-Jul-25 23:15N 34°42' E 035°26'1014.5
2016-Jul-25 22:33N 34°32' E 035°30'1313.4
2016-Jul-25 21:33N 34°31' E 035°46'5 1.2
2016-Jul-25 17:33N 34°27' E 035°50'35 2.2
2016-Jul-25 01:21N 33°57' E 035°28'14 8.0
2016-Jul-24 23:33N 33°54' E 035°11'13 8.6
2016-Jul-24 22:05N 33°48' E 034°57'4 8.5
2016-Jul-24 21:34N 33°46' E 034°53'9 8.5
2016-Jul-24 20:33N 33°42' E 034°43'9 8.6
2016-Jul-24 19:34N 33°38' E 034°34'9 8.5
2016-Jul-24 18:34N 33°34' E 034°25'9 8.6
2016-Jul-24 17:34N 33°30' E 034°16'9 8.7
2016-Jul-24 16:34N 33°26' E 034°07'9 8.6
2016-Jul-24 15:33N 33°22' E 033°58'13 8.6
2016-Jul-24 14:06N 33°17' E 033°44'6 9.1
2016-Jul-24 13:29N 33°15' E 033°38'8 8.9
2016-Jul-24 12:34N 33°11' E 033°29'10 9.0
2016-Jul-24 11:27N 33°07' E 033°19'8 9.1
2016-Jul-24 10:33N 33°03' E 033°10'9 8.9
2016-Jul-24 09:33N 32°59' E 033°00'10 8.9
2016-Jul-24 08:25N 32°54' E 032°50'13714.8
2016-Jul-23 23:12N 31°53' E 030°25'4014.7
2016-Jul-23 20:30N 31°26' E 029°51'  
2016-Jul-21 06:16N 35°60' E 015°26'1115.1
2016-Jul-21 05:32N 36°04' E 015°14'1515.0
2016-Jul-21 04:34N 36°09' E 014°57'1515.1
2016-Jul-21 03:34N 36°15' E 014°39'1515.3
2016-Jul-21 02:34N 36°20' E 014°21'1615.6
2016-Jul-21 01:34N 36°26' E 014°04'1515.3
2016-Jul-21 00:34N 36°32' E 013°46'1514.9
2016-Jul-20 23:34N 36°38' E 013°29'1514.8
2016-Jul-20 22:34N 36°43' E 013°12'1515.1
2016-Jul-20 21:34N 36°48' E 012°54'1514.9
2016-Jul-20 20:34N 36°53' E 012°36'1514.9
2016-Jul-20 19:33N 36°58' E 012°19'1413.8
2016-Jul-20 18:33N 37°04' E 012°03'1413.6
2016-Jul-20 17:33N 37°09' E 011°47'1513.1
2016-Jul-20 16:25N 37°15' E 011°30'1214.1
2016-Jul-20 15:33N 37°20' E 011°16'1312.5
2016-Jul-20 14:33N 37°20' E 011°00'1713.9
2016-Jul-20 13:19N 37°09' E 010°45'1113.5
2016-Jul-20 12:33N 37°00' E 010°36'26 1.6
2016-Jul-19 20:32N 37°23' E 010°19'1413.2
2016-Jul-19 19:30N 37°33' E 010°08'1415.3
2016-Jul-19 18:33N 37°36' E 009°50'1716.7
2016-Jul-19 17:33N 37°42' E 009°30'1717.2
2016-Jul-19 16:33N 37°47' E 009°09'1716.8
2016-Jul-19 15:33N 37°51' E 008°49'1816.6
2016-Jul-19 14:28N 37°56' E 008°27'1616.5
2016-Jul-19 13:32N 38°00' E 008°08'1616.2
2016-Jul-19 12:33N 38°04' E 007°49'1616.3
2016-Jul-19 11:33N 38°08' E 007°28'  
Track history (hours):
 
Tides and Currents Weather Stations Pressure Air Temp Water Temp Dewpoint Dewpoint Depression Visibility Wind Speed Wind Dir Waves Ship Positions

Grande Portogallo

Last reported at 2016-Jul-29 10:32 UTC. Time now 2016-Jul-30 14:57 UTC.
Position N 40°44' E 029°27'.

Length 176 m; draft 7.7 m.

Type: Cargo ship. MMSI: 247065500.

Date/timePositionNaut miles runAvg speedWind from/ knotsBaromVisibWave heightAir tempDewpointWater temp
2016-Jul-29 10:32N 40°44' E 029°27'1111.2
2016-Jul-29 09:33N 40°43' E 029°12'24312.5
2016-Jul-28 14:11N 37°36' E 025°52'  
2016-Jul-26 01:22N 35°11' E 035°15'1214.6
2016-Jul-26 00:33N 34°59' E 035°20'1914.4
2016-Jul-25 23:15N 34°42' E 035°26'1014.5
2016-Jul-25 22:33N 34°32' E 035°30'1313.4
2016-Jul-25 21:33N 34°31' E 035°46'5 1.2
2016-Jul-25 17:33N 34°27' E 035°50'35 2.2
2016-Jul-25 01:21N 33°57' E 035°28'14 8.0
2016-Jul-24 23:33N 33°54' E 035°11'13 8.6
2016-Jul-24 22:05N 33°48' E 034°57'4 8.5
2016-Jul-24 21:34N 33°46' E 034°53'9 8.5
2016-Jul-24 20:33N 33°42' E 034°43'9 8.6
2016-Jul-24 19:34N 33°38' E 034°34'9 8.5
2016-Jul-24 18:34N 33°34' E 034°25'9 8.6
2016-Jul-24 17:34N 33°30' E 034°16'9 8.7
2016-Jul-24 16:34N 33°26' E 034°07'9 8.6
2016-Jul-24 15:33N 33°22' E 033°58'13 8.6
2016-Jul-24 14:06N 33°17' E 033°44'6 9.1
2016-Jul-24 13:29N 33°15' E 033°38'8 8.9
2016-Jul-24 12:34N 33°11' E 033°29'10 9.0
2016-Jul-24 11:27N 33°07' E 033°19'8 9.1
2016-Jul-24 10:33N 33°03' E 033°10'9 8.9
2016-Jul-24 09:33N 32°59' E 033°00'10 8.9
2016-Jul-24 08:25N 32°54' E 032°50'13714.8
2016-Jul-23 23:12N 31°53' E 030°25'4014.7
2016-Jul-23 20:30N 31°26' E 029°51'  
2016-Jul-21 06:16N 35°60' E 015°26'1115.1
2016-Jul-21 05:32N 36°04' E 015°14'1515.0
2016-Jul-21 04:34N 36°09' E 014°57'1515.1
2016-Jul-21 03:34N 36°15' E 014°39'1515.3
2016-Jul-21 02:34N 36°20' E 014°21'1615.6
2016-Jul-21 01:34N 36°26' E 014°04'1515.3
2016-Jul-21 00:34N 36°32' E 013°46'1514.9
2016-Jul-20 23:34N 36°38' E 013°29'1514.8
2016-Jul-20 22:34N 36°43' E 013°12'1515.1
2016-Jul-20 21:34N 36°48' E 012°54'1514.9
2016-Jul-20 20:34N 36°53' E 012°36'1514.9
2016-Jul-20 19:33N 36°58' E 012°19'1413.8
2016-Jul-20 18:33N 37°04' E 012°03'1413.6
2016-Jul-20 17:33N 37°09' E 011°47'1513.1
2016-Jul-20 16:25N 37°15' E 011°30'1214.1
2016-Jul-20 15:33N 37°20' E 011°16'1312.5
2016-Jul-20 14:33N 37°20' E 011°00'1713.9
2016-Jul-20 13:19N 37°09' E 010°45'1113.5
2016-Jul-20 12:33N 37°00' E 010°36'26 1.6
2016-Jul-19 20:32N 37°23' E 010°19'1413.2
2016-Jul-19 19:30N 37°33' E 010°08'1415.3
2016-Jul-19 18:33N 37°36' E 009°50'1716.7
2016-Jul-19 17:33N 37°42' E 009°30'1717.2
2016-Jul-19 16:33N 37°47' E 009°09'1716.8
2016-Jul-19 15:33N 37°51' E 008°49'1816.6
2016-Jul-19 14:28N 37°56' E 008°27'1616.5
2016-Jul-19 13:32N 38°00' E 008°08'1616.2
2016-Jul-19 12:33N 38°04' E 007°49'1616.3
2016-Jul-19 11:33N 38°08' E 007°28'  

Dump ship's entire track history